Aviation Digital Data Service (ADDS)

Output produced by METARs form (0344 UTC 23 November 2017)
found at http://www.aviationweather.gov/adds/metars/
 
TKPK 230003Z 2300/2324 03006KT P6SM VCSH SCT018 BKN050 
     TEMPO 2300/2304 -SHRA BKN016 
     FM231250 07012KT P6SM VCSH SCT020 SCT040 AMD NOT SKED 2302/2311
       
TAF TKPN 222300Z 2300/2324 10008KT 9999 SCT020 
     PROB40 
     TEMPO 2200/2312 SHRA